Empire, Colorado
Current Conditions -  °F | °C
As of 11:10 AM on Friday 24 Oct 2014 (Local Time) from K0CO Reporting Station
Clear Clear  
Wind Chill: -3°   Ceiling: Unl
Heat Index:   Visibility: 10mi
Dew Point:   Wind: 20mph
Humidity: 93%   Direction: 310°NW
Pressure: 30.66"   Gusts: 28mph
Location:  39.76°N, 105.68°W
Report Text: K0CO 241710Z AUTO 31017G24KT 10SM CLR 03/02 A3066 RMK AO2
Loading
Personal Weather Stations






























Interactive Weather Map
Tropical Storm Tracking
New forecast layout! Learn more

10-Day Weather Forecast

Advertisements
Track Severe Weather on mobile